Time;durP1;ratioP1;P1;durP2;ratioP2;P2;SDS_P1;SDS_P2;PMS_P1;PMS_P2;Temp;Humidity;BMP_temperature;BMP_pressure;BME280_temperature;BME280_humidity;BME280_pressure;Samples;Min_cycle;Max_cycle;Signal;HPM_P1;HPM_P2
2022/12/19 00:00:12;;;;;;;31.75;15.13;;;-0.70;99.90;;;;;;12569097;28;20048;-84
2022/12/19 00:06:17;;;;;;;30.20;13.77;;;-0.70;99.90;;;;;;12556533;28;20063;-85
2022/12/19 00:12:19;;;;;;;33.50;15.20;;;-0.60;99.90;;;;;;12585750;28;20048;-86
2022/12/19 00:18:21;;;;;;;31.70;13.82;;;-0.70;99.90;;;;;;12568074;28;20052;-84
2022/12/19 00:24:22;;;;;;;31.08;14.80;;;-0.50;99.90;;;;;;12587861;28;20391;-84
2022/12/19 00:30:24;;;;;;;38.60;16.25;;;-0.50;99.90;;;;;;12593096;28;20048;-85
2022/12/19 00:36:33;;;;;;;33.72;15.27;;;-0.50;99.90;;;;;;12563104;28;20345;-85
2022/12/19 00:42:35;;;;;;;32.53;15.18;;;-0.40;99.90;;;;;;12582071;28;20630;-85
2022/12/19 00:48:37;;;;;;;35.05;15.77;;;-0.40;99.90;;;;;;12596168;28;20044;-85
2022/12/19 00:54:39;;;;;;;34.10;15.88;;;-0.30;99.90;;;;;;12560363;28;20687;-85
2022/12/19 01:00:41;;;;;;;35.35;15.75;;;-0.20;99.90;;;;;;12584183;28;20075;-85
2022/12/19 01:06:44;;;;;;;34.35;14.82;;;-0.20;99.90;;;;;;12575879;28;20045;-85
2022/12/19 01:12:45;;;;;;;38.15;16.60;;;-0.20;99.90;;;;;;12569709;28;20400;-85
2022/12/19 01:18:47;;;;;;;34.15;15.55;;;-0.10;99.90;;;;;;12581054;28;20055;-85
2022/12/19 01:24:49;;;;;;;37.63;16.65;;;-0.10;99.90;;;;;;12559598;28;20424;-85
2022/12/19 01:30:51;;;;;;;34.45;16.65;;;-0.10;99.90;;;;;;12583720;28;20066;-85
2022/12/19 01:36:54;;;;;;;34.60;16.73;;;-0.10;99.90;;;;;;12580204;28;20536;-85
2022/12/19 01:42:56;;;;;;;38.80;16.42;;;0.00;99.90;;;;;;12580389;28;20485;-85
2022/12/19 01:48:59;;;;;;;32.40;15.93;;;0.00;99.90;;;;;;12599098;28;20048;-85
2022/12/19 01:55:01;;;;;;;35.92;15.80;;;0.10;99.90;;;;;;12592424;28;20044;-85
2022/12/19 02:01:03;;;;;;;33.97;16.30;;;0.10;99.90;;;;;;12585188;28;20055;-85
2022/12/19 02:07:06;;;;;;;38.38;18.10;;;0.20;99.90;;;;;;12582024;28;20052;-86
2022/12/19 02:13:17;;;;;;;33.03;15.75;;;0.20;99.90;;;;;;12599413;28;20045;-86
2022/12/19 02:19:49;;;;;;;39.58;17.17;;;0.10;99.90;;;;;;12587183;28;20064;-85
2022/12/19 02:26:13;;;;;;;34.25;16.40;;;0.10;99.90;;;;;;12580181;28;20048;-85
2022/12/19 02:32:27;;;;;;;37.30;17.13;;;0.10;99.90;;;;;;12569048;28;20111;-85
2022/12/19 02:38:34;;;;;;;36.88;16.65;;;0.20;99.90;;;;;;12577401;28;20411;-85
2022/12/19 02:44:44;;;;;;;32.78;16.67;;;0.30;99.90;;;;;;12564433;28;20044;-86
2022/12/19 02:50:47;;;;;;;39.28;15.98;;;0.30;99.90;;;;;;12589040;28;20454;-85
2022/12/19 02:56:58;;;;;;;;;;;0.40;99.90;;;;;;12594418;28;20106;-85
2022/12/19 03:03:15;;;;;;;34.90;16.05;;;0.40;99.90;;;;;;12582415;28;19935;-85
2022/12/19 03:09:38;;;;;;;35.60;16.70;;;0.50;99.90;;;;;;12579295;28;20072;-85
2022/12/19 03:15:41;;;;;;;34.45;16.98;;;0.60;99.90;;;;;;12568854;28;20400;-84
2022/12/19 03:21:48;;;;;;;31.52;15.77;;;0.60;99.90;;;;;;12587401;28;20412;-84
2022/12/19 03:27:52;;;;;;;34.70;16.02;;;0.70;99.90;;;;;;12567264;28;20048;-84
2022/12/19 03:33:59;;;;;;;34.03;16.20;;;0.80;99.90;;;;;;12590859;28;20059;-84
2022/12/19 03:40:11;;;;;;;33.17;16.45;;;0.80;99.90;;;;;;12586315;28;20048;-84
2022/12/19 03:46:21;;;;;;;38.03;17.05;;;0.90;99.90;;;;;;12566855;28;20061;-85
2022/12/19 03:52:31;;;;;;;36.33;16.45;;;0.90;99.90;;;;;;12566689;28;21922;-85
2022/12/19 03:58:37;;;;;;;35.88;16.80;;;1.00;99.90;;;;;;12582939;28;20468;-84
2022/12/19 04:04:45;;;;;;;36.83;18.20;;;0.90;99.90;;;;;;12581785;28;20049;-84
2022/12/19 04:10:50;;;;;;;32.33;16.83;;;0.90;99.90;;;;;;12568864;28;20041;-84
2022/12/19 04:17:07;;;;;;;32.00;16.58;;;1.00;99.90;;;;;;12584754;28;20053;-85
2022/12/19 04:23:19;;;;;;;34.38;16.98;;;1.00;99.90;;;;;;12582913;28;20139;-84
2022/12/19 04:29:23;;;;;;;36.50;16.67;;;1.10;99.90;;;;;;12559603;28;20056;-84
2022/12/19 04:35:25;;;;;;;38.45;18.35;;;1.10;99.90;;;;;;12581272;28;20475;-85
2022/12/19 04:41:27;;;;;;;37.85;18.27;;;1.20;99.90;;;;;;12586288;28;20040;-84
2022/12/19 04:47:29;;;;;;;41.05;19.00;;;1.30;99.90;;;;;;12584677;28;20044;-84
2022/12/19 04:53:31;;;;;;;38.22;16.95;;;1.40;99.90;;;;;;12578329;28;20060;-85
2022/12/19 04:59:33;;;;;;;39.00;17.90;;;1.40;99.90;;;;;;12583736;28;20044;-85
2022/12/19 05:05:34;;;;;;;35.50;15.93;;;1.50;99.90;;;;;;12577855;28;20438;-85
2022/12/19 05:11:36;;;;;;;32.55;17.45;;;1.40;99.90;;;;;;12566478;28;20501;-84
2022/12/19 05:17:38;;;;;;;38.35;19.13;;;1.30;99.90;;;;;;12579504;28;20420;-84
2022/12/19 05:23:40;;;;;;;37.53;17.15;;;1.40;99.90;;;;;;12580123;28;20070;-84
2022/12/19 05:29:42;;;;;;;38.85;17.88;;;1.30;99.90;;;;;;12573659;28;20141;-84
2022/12/19 05:35:43;;;;;;;35.90;17.35;;;1.30;99.90;;;;;;12586242;28;20097;-84
2022/12/19 05:41:45;;;;;;;39.35;18.55;;;1.40;99.90;;;;;;12576807;28;20055;-84
2022/12/19 05:47:49;;;;;;;37.15;18.92;;;1.30;99.90;;;;;;12585884;28;20127;-84
2022/12/19 05:53:51;;;;;;;40.72;19.30;;;1.10;99.90;;;;;;12594930;28;20036;-84
2022/12/19 05:59:53;;;;;;;45.33;19.42;;;1.20;99.90;;;;;;12590020;28;20431;-84
2022/12/19 06:05:55;;;;;;;44.55;19.50;;;1.20;99.90;;;;;;12598302;28;20044;-84
2022/12/19 06:11:57;;;;;;;38.08;17.23;;;1.20;99.90;;;;;;12592287;28;20090;-85
2022/12/19 06:17:59;;;;;;;42.25;20.05;;;1.30;99.90;;;;;;12595789;28;20044;-85
2022/12/19 06:24:00;;;;;;;41.97;21.38;;;1.30;99.90;;;;;;12602965;28;20044;-84
2022/12/19 06:30:02;;;;;;;45.83;20.35;;;1.40;99.90;;;;;;12589416;28;20503;-85
2022/12/19 06:36:07;;;;;;;43.05;20.27;;;1.40;99.90;;;;;;12588974;28;20404;-85
2022/12/19 06:42:24;;;;;;;40.58;19.40;;;1.50;99.90;;;;;;12585314;28;20112;-84
2022/12/19 06:48:27;;;;;;;47.90;21.60;;;1.60;99.90;;;;;;12590530;28;20133;-84
2022/12/19 06:54:28;;;;;;;46.30;20.58;;;1.60;99.90;;;;;;12579321;28;20056;-84
2022/12/19 07:00:34;;;;;;;51.60;21.75;;;1.60;99.90;;;;;;12581059;28;20052;-84
2022/12/19 07:06:37;;;;;;;49.28;22.48;;;1.50;99.90;;;;;;12592406;28;20041;-85
2022/12/19 07:12:39;;;;;;;47.83;21.15;;;1.50;99.90;;;;;;12576325;28;20040;-85
2022/12/19 07:18:41;;;;;;;53.40;23.77;;;1.60;99.90;;;;;;12594491;28;20052;-85
2022/12/19 07:24:42;;;;;;;49.72;22.63;;;1.60;99.90;;;;;;12582346;28;20477;-85
2022/12/19 07:30:44;;;;;;;54.33;23.67;;;1.60;99.90;;;;;;12585557;28;20036;-86
2022/12/19 07:36:46;;;;;;;54.85;24.38;;;1.60;99.90;;;;;;12595196;28;20381;-85
2022/12/19 07:42:48;;;;;;;56.70;23.98;;;1.60;99.90;;;;;;12581136;28;20040;-85
2022/12/19 07:48:50;;;;;;;55.90;24.67;;;1.60;99.90;;;;;;12588291;28;20104;-85
2022/12/19 07:54:51;;;;;;;56.58;24.88;;;1.70;99.90;;;;;;12582280;28;20041;-85
2022/12/19 08:00:55;;;;;;;64.05;25.17;;;1.70;99.90;;;;;;12561612;28;20048;-86
2022/12/19 08:06:57;;;;;;;54.20;22.80;;;1.70;99.90;;;;;;12569912;28;21417;-86
2022/12/19 08:12:59;;;;;;;54.33;21.88;;;1.80;99.90;;;;;;12556268;28;20045;-85
2022/12/19 08:19:01;;;;;;;50.78;22.23;;;2.00;99.90;;;;;;12581214;28;20045;-85
2022/12/19 08:25:03;;;;;;;51.13;21.88;;;2.00;99.90;;;;;;12582445;28;20044;-86
2022/12/19 08:31:06;;;;;;;47.60;21.05;;;2.20;99.90;;;;;;12565492;28;20040;-86
2022/12/19 08:37:09;;;;;;;45.80;20.60;;;2.30;99.90;;;;;;12594953;28;20047;-85
2022/12/19 08:43:11;;;;;;;47.75;20.15;;;2.30;99.90;;;;;;12590569;28;20041;-86
2022/12/19 08:49:14;;;;;;;42.65;18.98;;;2.40;99.90;;;;;;12574408;28;20143;-86
2022/12/19 08:55:16;;;;;;;41.25;19.88;;;2.50;99.90;;;;;;12568432;28;20496;-86
2022/12/19 09:01:19;;;;;;;44.42;18.67;;;2.50;99.90;;;;;;12581029;28;20147;-86
2022/12/19 09:07:21;;;;;;;42.97;19.07;;;2.60;99.90;;;;;;12586299;28;20059;-86
2022/12/19 09:13:23;;;;;;;39.85;18.10;;;2.70;99.90;;;;;;12569053;28;20050;-86
2022/12/19 09:19:25;;;;;;;37.88;17.60;;;2.90;99.90;;;;;;12575635;28;20416;-86
2022/12/19 09:25:27;;;;;;;37.72;17.70;;;3.00;99.90;;;;;;12586905;28;20037;-86
2022/12/19 09:31:29;;;;;;;36.10;15.45;;;3.00;99.90;;;;;;12582344;28;20048;-86
2022/12/19 09:37:30;;;;;;;33.67;16.45;;;3.10;99.90;;;;;;12588994;28;20052;-86
2022/12/19 09:43:58;;;;;;;32.90;15.95;;;3.40;99.90;;;;;;12570000;28;20503;-86
2022/12/19 09:50:28;;;;;;;27.02;14.40;;;3.40;99.90;;;;;;12563709;28;20052;-86
2022/12/19 09:56:33;;;;;;;27.42;14.20;;;3.70;99.90;;;;;;12576772;28;20082;-87
2022/12/19 10:02:55;;;;;;;27.27;14.38;;;3.90;99.90;;;;;;12578118;28;20037;-87
2022/12/19 10:08:59;;;;;;;27.20;13.93;;;4.00;99.90;;;;;;12572645;28;20930;-87
2022/12/19 10:15:46;;;;;;;33.37;14.37;;;4.20;99.90;;;;;;12592943;28;20052;-87
2022/12/19 10:22:36;;;;;;;26.50;14.57;;;4.20;99.90;;;;;;12576046;28;20586;-86
2022/12/19 10:28:43;;;;;;;27.27;14.20;;;4.20;99.90;;;;;;12569547;28;20121;-86
2022/12/19 10:34:47;;;;;;;24.33;13.27;;;4.10;99.90;;;;;;12568655;28;20036;-87
2022/12/19 10:41:13;;;;;;;29.45;14.30;;;4.20;99.90;;;;;;12578497;28;20048;-86
2022/12/19 10:47:16;;;;;;;27.65;13.93;;;4.30;99.90;;;;;;12589459;28;20083;-87
2022/12/19 10:53:27;;;;;;;23.25;12.73;;;4.40;99.90;;;;;;12574527;28;20062;-87
2022/12/19 10:59:29;;;;;;;24.55;12.60;;;4.70;99.90;;;;;;12586695;28;20053;-87
2022/12/19 11:05:52;;;;;;;22.45;11.90;;;5.00;99.90;;;;;;12571412;28;20249;-86
2022/12/19 11:12:19;;;;;;;28.58;12.93;;;5.20;99.90;;;;;;12577006;28;20052;-87
2022/12/19 11:18:44;;;;;;;22.65;11.75;;;5.40;99.90;;;;;;12578444;28;20148;-87
2022/12/19 11:25:13;;;;;;;20.42;11.70;;;5.50;99.90;;;;;;12581542;28;20128;-87
2022/12/19 11:31:35;;;;;;;19.05;11.60;;;5.60;99.90;;;;;;12576035;28;20047;-87
2022/12/19 11:37:59;;;;;;;19.60;10.65;;;5.80;99.90;;;;;;12590007;28;20045;-87
2022/12/19 11:44:18;;;;;;;17.30;10.67;;;5.80;99.90;;;;;;12590679;28;20041;-87
2022/12/19 11:50:21;;;;;;;17.40;10.73;;;5.90;99.90;;;;;;12555299;28;20056;-87
2022/12/19 11:56:26;;;;;;;17.45;10.35;;;6.00;99.90;;;;;;12578462;28;20497;-88
2022/12/19 12:02:36;;;;;;;18.48;10.00;;;6.10;99.90;;;;;;12570567;28;20044;-87
2022/12/19 12:08:57;;;;;;;14.13;9.45;;;6.20;99.90;;;;;;12583129;28;20048;-87
2022/12/19 12:15:45;;;;;;;15.55;9.50;;;6.20;99.90;;;;;;12582863;28;20040;-87
2022/12/19 12:22:26;;;;;;;14.88;9.10;;;6.30;99.90;;;;;;12579309;28;20044;-87
2022/12/19 12:29:25;;;;;;;14.40;9.13;;;6.30;99.90;;;;;;12573242;28;20051;-87
2022/12/19 12:35:56;;;;;;;14.68;9.07;;;6.40;99.90;;;;;;12559162;28;20499;-87
2022/12/19 12:42:57;;;;;;;15.70;9.75;;;6.30;99.90;;;;;;12580716;28;20044;-88
2022/12/19 12:49:09;;;;;;;15.25;9.27;;;6.50;99.90;;;;;;12563590;28;20488;-87
2022/12/19 12:55:21;;;;;;;15.27;9.80;;;6.50;99.90;;;;;;12588918;28;20045;-88
2022/12/19 13:01:28;;;;;;;16.33;9.60;;;6.40;99.90;;;;;;12565755;28;20068;-87
2022/12/19 13:07:54;;;;;;;17.20;9.82;;;6.50;99.90;;;;;;12569274;28;20044;-87
2022/12/19 13:13:56;;;;;;;14.88;9.13;;;6.50;99.90;;;;;;12588225;28;20396;-87
2022/12/19 13:20:05;;;;;;;15.85;9.27;;;6.60;99.90;;;;;;12575360;28;20049;-87
2022/12/19 13:26:20;;;;;;;15.93;8.95;;;6.70;99.90;;;;;;12566848;28;20082;-87
2022/12/19 13:32:22;;;;;;;15.23;8.95;;;6.80;99.90;;;;;;12576817;28;20226;-88
2022/12/19 13:38:25;;;;;;;14.05;8.70;;;6.70;99.90;;;;;;12586020;28;20044;-87
2022/12/19 13:44:49;;;;;;;18.75;9.20;;;6.80;99.90;;;;;;12590280;28;20052;-87
2022/12/19 13:50:53;;;;;;;15.27;9.52;;;6.80;99.90;;;;;;12584828;28;20045;-87
2022/12/19 13:56:55;;;;;;;13.07;8.00;;;6.80;99.90;;;;;;12595577;28;20051;-87
2022/12/19 14:02:58;;;;;;;14.68;9.07;;;6.80;99.90;;;;;;12593151;28;20040;-86
2022/12/19 14:09:20;;;;;;;16.77;9.48;;;6.70;99.90;;;;;;12587924;28;20045;-87
2022/12/19 14:15:47;;;;;;;16.40;10.75;;;6.70;99.90;;;;;;12584220;28;20047;-87
2022/12/19 14:21:53;;;;;;;20.27;10.80;;;6.50;99.90;;;;;;12593266;28;20045;-87
2022/12/19 14:28:26;;;;;;;18.98;10.40;;;6.40;99.90;;;;;;12572230;28;20524;-87
2022/12/19 14:34:32;;;;;;;17.63;10.52;;;6.50;99.90;;;;;;12602212;28;20047;-87
2022/12/19 14:40:54;;;;;;;19.48;10.88;;;6.40;99.90;;;;;;12566326;28;20416;-87
2022/12/19 14:47:13;;;;;;;19.60;11.20;;;6.30;99.90;;;;;;12567169;28;20079;-87
2022/12/19 14:53:36;;;;;;;17.40;10.50;;;6.20;99.90;;;;;;12577646;28;20081;-87
2022/12/19 14:59:57;;;;;;;16.30;9.65;;;6.40;99.90;;;;;;12587746;28;20063;-86
2022/12/19 15:06:17;;;;;;;16.17;9.48;;;6.40;99.90;;;;;;12586807;28;20182;-87
2022/12/19 15:19:38;;;;;;;14.48;8.98;;;6.40;99.90;;;;;;12588475;28;20044;-86
2022/12/19 15:25:40;;;;;;;15.05;9.65;;;6.40;99.90;;;;;;12557729;28;20627;-87
2022/12/19 15:32:02;;;;;;;18.77;9.48;;;6.50;99.90;;;;;;12568831;28;20052;-87
2022/12/19 15:38:03;;;;;;;19.10;10.20;;;6.40;99.90;;;;;;12583645;28;20040;-87
2022/12/19 15:44:15;;;;;;;15.32;9.13;;;6.40;99.90;;;;;;12585535;28;20040;-83
2022/12/19 15:50:20;;;;;;;16.00;9.27;;;6.40;99.90;;;;;;12588093;28;20044;-83
2022/12/19 15:56:27;;;;;;;15.23;8.75;;;6.50;99.90;;;;;;12564415;28;20055;-85
2022/12/19 16:02:30;;;;;;;14.38;8.65;;;6.50;99.90;;;;;;12584778;28;21337;-84
2022/12/19 16:08:52;;;;;;;14.27;8.20;;;6.40;99.90;;;;;;12592623;28;20049;-84
2022/12/19 16:14:57;;;;;;;14.27;8.88;;;6.20;99.90;;;;;;12579814;28;20051;-84
2022/12/19 16:20:58;;;;;;;14.95;8.55;;;6.20;99.90;;;;;;12590944;28;20048;-84
2022/12/19 16:27:00;;;;;;;15.00;8.63;;;6.20;99.90;;;;;;12587842;28;20048;-84
2022/12/19 16:33:04;;;;;;;17.92;9.05;;;6.30;99.90;;;;;;12568243;28;20063;-84
2022/12/19 16:39:07;;;;;;;14.75;8.32;;;6.30;99.90;;;;;;12566318;28;20062;-84
2022/12/19 16:45:25;;;;;;;17.60;9.25;;;6.30;99.90;;;;;;12584883;28;20117;-84
2022/12/19 16:51:27;;;;;;;15.63;8.85;;;6.30;99.90;;;;;;12539029;28;20122;-84
2022/12/19 16:57:29;;;;;;;14.70;8.65;;;6.30;99.90;;;;;;12563402;28;20044;-84
2022/12/19 17:03:42;;;;;;;13.80;8.60;;;6.20;99.90;;;;;;12586854;28;20051;-84
2022/12/19 17:09:43;;;;;;;15.10;8.85;;;6.30;99.90;;;;;;12565926;28;20049;-85
2022/12/19 17:15:45;;;;;;;17.58;9.95;;;6.30;99.90;;;;;;12585490;28;20036;-84
2022/12/19 17:21:56;;;;;;;18.40;9.73;;;6.20;99.90;;;;;;12594604;28;20068;-85
2022/12/19 17:27:58;;;;;;;21.55;10.38;;;6.10;99.90;;;;;;12580539;28;20416;-85
2022/12/19 17:34:00;;;;;;;15.18;9.70;;;6.00;99.90;;;;;;12593695;28;20044;-85
2022/12/19 17:40:02;;;;;;;19.35;10.35;;;6.00;99.90;;;;;;12601142;28;20048;-85
2022/12/19 17:46:04;;;;;;;18.85;10.35;;;6.00;99.90;;;;;;12594794;28;20048;-84
2022/12/19 17:52:12;;;;;;;16.98;10.25;;;5.90;99.90;;;;;;12587702;28;20037;-84
2022/12/19 17:58:14;;;;;;;15.85;9.98;;;5.90;99.90;;;;;;12586112;28;20134;-85
2022/12/19 18:04:18;;;;;;;23.88;10.20;;;5.90;99.90;;;;;;12575468;28;20068;-84
2022/12/19 18:10:26;;;;;;;17.87;10.47;;;5.90;99.90;;;;;;12585944;28;20053;-85
2022/12/19 18:16:29;;;;;;;17.55;9.95;;;5.90;99.90;;;;;;12600209;28;20508;-84
2022/12/19 18:22:31;;;;;;;16.70;9.43;;;6.10;99.90;;;;;;12586389;28;20044;-84
2022/12/19 18:28:33;;;;;;;16.10;9.73;;;6.00;99.90;;;;;;12569127;28;20052;-85
2022/12/19 18:34:35;;;;;;;15.00;8.27;;;6.20;99.90;;;;;;12584412;28;20048;-85
2022/12/19 18:40:37;;;;;;;16.27;8.90;;;6.20;99.90;;;;;;12598628;28;20040;-84
2022/12/19 18:46:40;;;;;;;14.38;7.85;;;6.30;99.90;;;;;;12573399;28;20055;-84
2022/12/19 18:52:42;;;;;;;12.88;7.80;;;6.50;99.90;;;;;;12593607;28;20519;-85
2022/12/19 18:58:43;;;;;;;13.05;7.72;;;6.60;99.90;;;;;;12577935;28;20048;-85
2022/12/19 19:04:45;;;;;;;14.30;7.38;;;6.60;99.90;;;;;;12566897;28;20047;-85
2022/12/19 19:10:49;;;;;;;13.85;7.50;;;6.80;99.90;;;;;;12576067;28;20458;-85
2022/12/19 19:16:51;;;;;;;14.23;8.27;;;6.90;99.90;;;;;;12592559;28;20390;-84
2022/12/19 19:22:53;;;;;;;11.07;6.53;;;6.80;99.90;;;;;;12585513;28;20503;-85
2022/12/19 19:28:55;;;;;;;15.38;7.75;;;6.80;99.90;;;;;;12585950;28;20045;-85
2022/12/19 19:34:57;;;;;;;12.68;7.45;;;6.80;99.90;;;;;;12581187;28;20093;-84
2022/12/19 19:40:59;;;;;;;13.25;7.53;;;6.80;99.90;;;;;;12578459;28;20048;-85
2022/12/19 19:47:01;;;;;;;13.20;7.82;;;6.70;99.90;;;;;;12572187;28;20492;-84
2022/12/19 19:53:03;;;;;;;13.77;8.18;;;6.60;99.90;;;;;;12564062;28;20151;-85
2022/12/19 19:59:05;;;;;;;14.30;7.88;;;6.70;99.90;;;;;;12592593;28;20058;-84
2022/12/19 20:05:08;;;;;;;13.93;7.55;;;6.50;99.90;;;;;;12583718;28;20048;-84
2022/12/19 20:11:10;;;;;;;14.43;7.95;;;6.50;99.90;;;;;;12573904;28;20047;-84
2022/12/19 20:17:11;;;;;;;12.25;6.60;;;6.60;99.90;;;;;;12569250;28;20049;-85
2022/12/19 20:23:13;;;;;;;11.50;6.75;;;6.80;99.90;;;;;;12559696;28;20047;-85
2022/12/19 20:29:15;;;;;;;10.93;6.40;;;7.00;99.90;;;;;;12581868;28;20719;-85
2022/12/19 20:35:17;;;;;;;9.15;5.90;;;7.20;99.90;;;;;;12560257;28;20045;-85
2022/12/19 20:41:19;;;;;;;12.02;6.07;;;7.30;99.90;;;;;;12586499;28;20048;-85
2022/12/19 20:47:20;;;;;;;11.43;5.85;;;7.20;99.90;;;;;;12568720;28;20056;-84
2022/12/19 20:53:22;;;;;;;11.25;6.13;;;7.20;99.90;;;;;;12554908;28;20185;-85
2022/12/19 20:59:24;;;;;;;8.25;5.53;;;7.30;99.90;;;;;;12576347;28;20062;-85
2022/12/19 21:05:26;;;;;;;10.43;5.78;;;7.30;99.90;;;;;;12560806;28;20037;-85
2022/12/19 21:11:28;;;;;;;10.52;5.60;;;7.30;99.90;;;;;;12582094;28;20127;-85
2022/12/19 21:17:30;;;;;;;9.02;5.45;;;7.50;99.90;;;;;;12580598;28;20052;-85
2022/12/19 21:23:32;;;;;;;10.18;5.78;;;7.60;99.90;;;;;;12560817;28;20048;-85
2022/12/19 21:29:33;;;;;;;10.25;5.47;;;7.70;99.90;;;;;;12562858;28;20078;-84
2022/12/19 21:35:36;;;;;;;11.25;5.82;;;7.80;99.90;;;;;;12564853;28;20059;-85
2022/12/19 21:41:38;;;;;;;10.15;5.65;;;7.70;99.90;;;;;;12580627;28;20064;-85
2022/12/19 21:47:41;;;;;;;11.13;6.45;;;7.60;99.90;;;;;;12565260;28;20053;-84
2022/12/19 21:53:43;;;;;;;10.63;6.25;;;7.60;99.90;;;;;;12576668;28;20044;-86
2022/12/19 21:59:45;;;;;;;11.75;6.78;;;7.60;99.90;;;;;;12581368;28;20377;-85
2022/12/19 22:05:47;;;;;;;13.77;7.20;;;7.60;99.90;;;;;;12586759;28;20037;-85
2022/12/19 22:11:49;;;;;;;14.55;6.85;;;7.40;99.90;;;;;;12589150;28;20408;-85
2022/12/19 22:17:51;;;;;;;15.52;7.05;;;7.30;99.90;;;;;;12574500;28;20048;-85
2022/12/19 22:24:00;;;;;;;15.75;6.40;;;7.40;99.90;;;;;;12589975;28;20135;-85
2022/12/19 22:30:02;;;;;;;10.85;6.35;;;7.40;99.90;;;;;;12585316;28;20420;-85
2022/12/19 22:36:12;;;;;;;10.38;5.70;;;7.50;99.90;;;;;;12593549;28;20049;-85
2022/12/19 22:42:16;;;;;;;13.57;6.70;;;7.60;99.90;;;;;;12585351;28;20083;-85
2022/12/19 22:48:18;;;;;;;11.68;6.80;;;7.60;99.90;;;;;;12591371;28;20099;-85
2022/12/19 22:54:20;;;;;;;13.25;7.18;;;7.50;99.90;;;;;;12571788;28;20047;-86
2022/12/19 23:00:22;;;;;;;13.85;7.40;;;7.40;99.90;;;;;;12582355;28;20059;-86
2022/12/19 23:06:25;;;;;;;11.90;7.03;;;7.40;99.90;;;;;;12573691;28;20067;-85
2022/12/19 23:12:27;;;;;;;13.82;7.57;;;7.40;99.90;;;;;;12592515;28;20067;-85
2022/12/19 23:18:29;;;;;;;10.75;7.22;;;7.30;99.90;;;;;;12594363;28;20496;-86
2022/12/19 23:24:31;;;;;;;11.77;6.60;;;7.50;99.90;;;;;;12587328;28;20507;-85
2022/12/19 23:30:34;;;;;;;10.38;5.93;;;7.50;99.90;;;;;;12582472;28;20036;-86
2022/12/19 23:36:37;;;;;;;9.40;5.47;;;7.50;99.90;;;;;;12582941;28;20041;-85
2022/12/19 23:42:59;;;;;;;12.25;6.07;;;7.80;99.90;;;;;;12584769;28;20063;-85
2022/12/19 23:49:00;;;;;;;11.68;5.60;;;7.90;99.90;;;;;;12569626;28;20500;-86
2022/12/19 23:55:02;;;;;;;8.85;5.30;;;8.10;99.90;;;;;;12577165;28;20071;-85
